createdAt,value
2019-05-11T00:02:16.388Z,22.57
2019-05-11T00:04:47.093Z,22.56
2019-05-11T00:07:17.416Z,22.57
2019-05-11T00:09:57.597Z,22.55
2019-05-11T00:12:20.533Z,22.54
2019-05-11T00:14:51.717Z,22.54
2019-05-11T00:17:21.926Z,22.54
2019-05-11T00:19:52.127Z,22.54
2019-05-11T00:22:22.341Z,22.54
2019-05-11T00:24:52.578Z,22.54
2019-05-11T00:27:22.853Z,22.53
2019-05-11T00:29:53.112Z,22.53
2019-05-11T00:32:23.374Z,22.53
2019-05-11T00:34:53.556Z,22.52
2019-05-11T00:37:23.730Z,22.51
2019-05-11T00:39:53.949Z,22.53
2019-05-11T00:42:24.166Z,22.52
2019-05-11T00:44:54.378Z,22.52
2019-05-11T00:47:24.589Z,22.52
2019-05-11T00:49:54.808Z,22.52
2019-05-11T00:52:24.992Z,22.51
2019-05-11T00:54:55.218Z,22.51
2019-05-11T00:57:25.391Z,22.51
2019-05-11T00:59:55.620Z,22.49
2019-05-11T01:02:25.811Z,22.51
2019-05-11T01:04:56.034Z,22.51
2019-05-11T01:07:26.207Z,22.50
2019-05-11T01:09:57.497Z,22.50
2019-05-11T01:12:26.054Z,22.48
2019-05-11T01:14:56.414Z,22.49
2019-05-11T01:17:26.586Z,22.49
2019-05-11T01:19:56.806Z,22.49
2019-05-11T01:22:26.981Z,22.48
2019-05-11T01:24:57.308Z,22.47
2019-05-11T01:27:27.500Z,22.48
2019-05-11T01:29:57.727Z,22.47
2019-05-11T01:32:28.982Z,22.47
2019-05-11T01:34:59.213Z,22.46
2019-05-11T01:37:29.432Z,22.47
2019-05-11T01:39:59.634Z,22.47
2019-05-11T01:42:29.865Z,22.47
2019-05-11T01:45:00.387Z,22.47
2019-05-11T01:47:30.581Z,22.47
2019-05-11T01:50:01.240Z,22.46
2019-05-11T01:52:31.466Z,22.46
2019-05-11T01:55:01.704Z,22.45
2019-05-11T01:57:31.944Z,22.46
2019-05-11T02:00:02.200Z,22.45
2019-05-11T02:02:33.567Z,22.46
2019-05-11T02:05:21.244Z,22.46
2019-05-11T02:07:51.420Z,22.45
2019-05-11T02:10:21.649Z,22.45
2019-05-11T02:12:51.905Z,22.45
2019-05-11T02:15:22.144Z,22.45
2019-05-11T02:17:52.341Z,22.44
2019-05-11T02:20:22.575Z,22.45
2019-05-11T02:22:54.873Z,22.44
2019-05-11T02:25:25.107Z,22.43
2019-05-11T02:27:55.281Z,22.43
2019-05-11T02:30:25.610Z,22.43
2019-05-11T02:32:55.798Z,22.43
2019-05-11T02:35:26.113Z,22.42
2019-05-11T02:37:56.292Z,22.42
2019-05-11T02:40:26.532Z,22.42
2019-05-11T02:42:56.754Z,22.42
2019-05-11T02:45:37.410Z,22.43
2019-05-11T02:48:07.674Z,22.42
2019-05-11T02:50:40.821Z,22.42
2019-05-11T02:53:10.998Z,22.42
2019-05-11T02:55:41.228Z,22.42
2019-05-11T02:58:11.540Z,22.43
2019-05-11T03:00:42.841Z,22.44
2019-05-11T03:03:13.167Z,22.43
2019-05-11T03:05:43.451Z,22.44
2019-05-11T03:08:13.751Z,22.44
2019-05-11T03:10:43.948Z,22.44
2019-05-11T03:13:14.363Z,22.41
2019-05-11T03:15:44.545Z,22.37
2019-05-11T03:18:15.341Z,22.39
2019-05-11T03:20:45.527Z,22.36
2019-05-11T03:23:15.749Z,22.35
2019-05-11T03:25:45.931Z,22.36
2019-05-11T03:28:16.189Z,22.37
2019-05-11T03:30:46.514Z,22.38
2019-05-11T03:33:16.713Z,22.38
2019-05-11T03:35:46.909Z,22.38
2019-05-11T03:38:17.074Z,22.39
2019-05-11T03:40:47.377Z,22.39
2019-05-11T03:43:17.560Z,22.39
2019-05-11T03:45:47.782Z,22.40
2019-05-11T03:48:18.031Z,22.39
2019-05-11T03:50:48.261Z,22.39
2019-05-11T03:53:18.487Z,22.39
2019-05-11T03:55:48.668Z,22.39
2019-05-11T03:58:18.883Z,22.38
2019-05-11T04:00:49.103Z,22.39
2019-05-11T04:03:19.533Z,22.39
2019-05-11T04:05:49.792Z,22.38
2019-05-11T04:08:19.988Z,22.38
2019-05-11T04:10:50.217Z,22.39
2019-05-11T04:13:20.444Z,22.39
2019-05-11T04:15:50.634Z,22.39
2019-05-11T04:18:20.946Z,22.40
2019-05-11T04:20:51.127Z,22.40
2019-05-11T04:23:21.323Z,22.39
2019-05-11T04:25:51.614Z,22.39
2019-05-11T04:28:21.797Z,22.39
2019-05-11T04:30:52.024Z,22.41
2019-05-11T04:33:22.251Z,22.39
2019-05-11T04:35:52.456Z,22.40
2019-05-11T04:38:22.683Z,22.40
2019-05-11T04:40:54.946Z,22.40
2019-05-11T04:43:25.160Z,22.40
2019-05-11T04:45:55.375Z,22.40
2019-05-11T04:48:25.758Z,22.39
2019-05-11T04:50:56.009Z,22.39
2019-05-11T04:53:26.264Z,22.39
2019-05-11T04:55:56.753Z,22.39
2019-05-11T04:58:27.002Z,22.38
2019-05-11T05:00:57.380Z,22.39
2019-05-11T05:03:40.272Z,22.39
2019-05-11T05:06:20.908Z,22.39
2019-05-11T05:08:31.369Z,22.38
2019-05-11T05:11:01.705Z,22.38
2019-05-11T05:13:31.893Z,22.38
2019-05-11T05:16:02.933Z,22.38
2019-05-11T05:18:33.178Z,22.38
2019-05-11T05:21:03.395Z,22.39
2019-05-11T05:23:33.596Z,22.40
2019-05-11T05:26:03.768Z,22.40
2019-05-11T05:28:33.959Z,22.41
2019-05-11T05:31:04.144Z,22.42
2019-05-11T05:33:34.786Z,22.42
2019-05-11T05:36:05.030Z,22.44
2019-05-11T05:38:35.250Z,22.44
2019-05-11T05:41:05.421Z,22.45
2019-05-11T05:43:35.680Z,22.44
2019-05-11T05:46:05.865Z,22.45
2019-05-11T05:48:36.113Z,22.46
2019-05-11T05:51:06.326Z,22.47
2019-05-11T05:53:36.506Z,22.47
2019-05-11T05:56:06.728Z,22.47
2019-05-11T05:58:36.948Z,22.49
2019-05-11T06:01:10.104Z,22.49
2019-05-11T06:03:39.274Z,22.49
2019-05-11T06:06:09.444Z,22.50
2019-05-11T06:08:43.039Z,22.50
2019-05-11T06:11:11.504Z,22.50
2019-05-11T06:13:45.497Z,22.51
2019-05-11T06:16:13.942Z,22.51
2019-05-11T06:18:44.390Z,22.52
2019-05-11T06:21:14.797Z,22.52
2019-05-11T06:23:45.204Z,22.53
2019-05-11T06:26:15.607Z,22.53
2019-05-11T06:28:45.977Z,22.54
2019-05-11T06:31:16.593Z,22.55
2019-05-11T06:33:46.977Z,22.55
2019-05-11T06:36:17.244Z,22.55
2019-05-11T06:38:47.532Z,22.55
2019-05-11T06:41:17.951Z,22.56
2019-05-11T06:44:01.419Z,22.57
2019-05-11T06:46:20.238Z,22.58
2019-05-11T06:48:50.620Z,22.57
2019-05-11T06:51:21.094Z,22.57
2019-05-11T06:53:51.482Z,22.57
2019-05-11T06:56:21.948Z,22.57
2019-05-11T06:58:52.420Z,22.58
2019-05-11T07:01:22.867Z,22.58
2019-05-11T07:03:53.233Z,22.58
2019-05-11T07:06:26.174Z,22.60
2019-05-11T07:08:55.514Z,22.60
2019-05-11T07:11:25.712Z,22.60
2019-05-11T07:13:56.151Z,22.59
2019-05-11T07:16:26.549Z,22.60
2019-05-11T07:18:57.015Z,22.60
2019-05-11T07:21:27.285Z,22.60
2019-05-11T07:23:57.701Z,22.60
2019-05-11T07:26:28.330Z,22.60
2019-05-11T07:28:58.623Z,22.61
2019-05-11T07:31:29.067Z,22.60
2019-05-11T07:33:59.535Z,22.61
2019-05-11T07:36:30.014Z,22.60
2019-05-11T07:39:00.322Z,22.61
2019-05-11T07:41:30.813Z,22.61
2019-05-11T07:44:01.276Z,22.61
2019-05-11T07:46:31.703Z,22.60
2019-05-11T07:49:02.044Z,22.61
2019-05-11T07:51:32.470Z,22.61
2019-05-11T07:54:03.128Z,22.60
2019-05-11T07:56:33.615Z,22.61
2019-05-11T07:59:03.931Z,22.60
2019-05-11T08:01:34.262Z,22.60
2019-05-11T08:04:04.697Z,22.61
2019-05-11T08:06:35.023Z,22.60
2019-05-11T08:09:08.349Z,22.60
2019-05-11T08:11:39.120Z,22.59
2019-05-11T08:14:10.416Z,22.60
2019-05-11T08:16:40.672Z,22.60
2019-05-11T08:19:11.155Z,22.59
2019-05-11T08:21:41.524Z,22.60
2019-05-11T08:24:11.995Z,22.59
2019-05-11T08:26:42.293Z,22.60
2019-05-11T08:29:12.687Z,22.60
2019-05-11T08:31:42.979Z,22.59
2019-05-11T08:34:13.298Z,22.59
2019-05-11T08:36:43.962Z,22.59
2019-05-11T08:39:14.410Z,22.59
2019-05-11T08:41:44.743Z,22.59
2019-05-11T08:44:15.141Z,22.59
2019-05-11T08:46:47.681Z,22.59
2019-05-11T08:49:18.981Z,22.58
2019-05-11T08:51:49.709Z,22.57
2019-05-11T08:54:20.297Z,22.57
2019-05-11T08:56:50.630Z,22.57
2019-05-11T08:59:21.044Z,22.57
2019-05-11T09:01:51.281Z,22.57
2019-05-11T09:04:22.531Z,22.56
2019-05-11T09:06:52.914Z,22.56
2019-05-11T09:09:24.061Z,22.55
2019-05-11T09:11:54.368Z,22.55
2019-05-11T09:14:24.689Z,22.55
2019-05-11T09:16:57.590Z,22.54
2019-05-11T09:19:28.457Z,22.53
2019-05-11T09:21:59.093Z,22.53
2019-05-11T09:24:29.509Z,22.53
2019-05-11T09:26:59.901Z,22.53
2019-05-11T09:29:30.284Z,22.52
2019-05-11T09:32:00.702Z,22.52
2019-05-11T09:34:31.079Z,22.52
2019-05-11T09:37:02.036Z,22.51
2019-05-11T09:39:32.492Z,22.51
2019-05-11T09:42:02.976Z,22.51
2019-05-11T09:44:34.571Z,22.50
2019-05-11T09:47:04.790Z,22.50
2019-05-11T09:49:46.422Z,22.50
2019-05-11T09:52:09.538Z,22.49
2019-05-11T09:54:40.061Z,22.48
2019-05-11T09:57:10.430Z,22.48
2019-05-11T09:59:40.773Z,22.48
2019-05-11T10:02:11.243Z,22.48
2019-05-11T10:04:41.669Z,22.48
2019-05-11T10:07:11.990Z,22.48
2019-05-11T10:09:42.460Z,22.47
2019-05-11T10:12:12.870Z,22.47
2019-05-11T10:14:43.324Z,22.47
2019-05-11T10:17:13.769Z,22.46
2019-05-11T10:19:46.750Z,22.45
2019-05-11T10:22:18.419Z,22.45
2019-05-11T10:24:48.357Z,22.44
2019-05-11T10:27:19.027Z,22.45
2019-05-11T10:29:49.619Z,22.44
2019-05-11T10:32:19.911Z,22.43
2019-05-11T10:34:51.354Z,22.43
2019-05-11T10:37:21.737Z,22.43
2019-05-11T10:39:52.013Z,22.43
2019-05-11T10:42:22.392Z,22.42
2019-05-11T10:44:52.860Z,22.42
2019-05-11T10:47:23.332Z,22.42
2019-05-11T10:49:53.767Z,22.41
2019-05-11T10:52:24.098Z,22.40
2019-05-11T10:54:54.627Z,22.41
2019-05-11T10:57:25.051Z,22.40
2019-05-11T10:59:57.827Z,22.41
2019-05-11T11:02:27.983Z,22.41
2019-05-11T11:04:58.946Z,22.39
2019-05-11T11:07:29.326Z,22.39
2019-05-11T11:09:59.697Z,22.39
2019-05-11T11:12:30.064Z,22.39
2019-05-11T11:15:00.537Z,22.38
2019-05-11T11:17:31.507Z,22.37
2019-05-11T11:20:02.151Z,22.37
2019-05-11T11:22:39.964Z,22.36
2019-05-11T11:25:05.111Z,22.36
2019-05-11T11:27:37.917Z,22.35
2019-05-11T11:30:09.177Z,22.35
2019-05-11T11:32:39.971Z,22.35
2019-05-11T11:35:10.251Z,22.36
2019-05-11T11:37:40.722Z,22.35
2019-05-11T11:40:11.529Z,22.35
2019-05-11T11:42:43.073Z,22.36
2019-05-11T11:45:13.393Z,22.35
2019-05-11T11:47:43.785Z,22.34
2019-05-11T11:50:14.355Z,22.34
2019-05-11T11:52:47.737Z,22.34
2019-05-11T11:55:19.345Z,22.33
2019-05-11T11:57:50.512Z,22.33
2019-05-11T12:00:20.987Z,22.32
2019-05-11T12:02:51.406Z,22.32
2019-05-11T12:05:21.686Z,22.31
2019-05-11T12:07:52.208Z,22.29
2019-05-11T12:10:22.486Z,22.30
2019-05-11T12:12:54.359Z,22.30
2019-05-11T12:15:24.909Z,22.29
2019-05-11T12:17:55.395Z,22.29
2019-05-11T12:20:28.468Z,22.28
2019-05-11T12:22:58.614Z,22.28
2019-05-11T12:25:29.131Z,22.28
2019-05-11T12:27:59.404Z,22.26
2019-05-11T12:30:29.703Z,22.26
2019-05-11T12:33:00.207Z,22.26
2019-05-11T12:35:30.682Z,22.26
2019-05-11T12:38:01.028Z,22.25
2019-05-11T12:40:32.750Z,22.26
2019-05-11T12:43:03.109Z,22.26
2019-05-11T12:45:33.686Z,22.25
2019-05-11T12:48:04.077Z,22.26
2019-05-11T12:50:34.387Z,22.25
2019-05-11T12:53:04.667Z,22.24
2019-05-11T12:55:33.304Z,22.24
2019-05-11T12:58:02.308Z,22.24
2019-05-11T13:00:32.936Z,22.24
2019-05-11T13:03:04.437Z,22.24
2019-05-11T13:05:34.806Z,22.23
2019-05-11T13:08:07.764Z,22.23
2019-05-11T13:10:39.385Z,22.22
2019-05-11T13:13:09.778Z,22.22
2019-05-11T13:15:40.203Z,22.22
2019-05-11T13:18:10.980Z,22.22
2019-05-11T13:20:41.368Z,22.22
2019-05-11T13:23:11.772Z,22.21
2019-05-11T13:25:42.164Z,22.20
2019-05-11T13:28:12.573Z,22.20
2019-05-11T13:30:43.005Z,22.19
2019-05-11T13:33:13.396Z,22.18
2019-05-11T13:35:43.805Z,22.19
2019-05-11T13:38:14.291Z,22.18
2019-05-11T13:40:44.675Z,22.18
2019-05-11T13:43:15.136Z,22.18
2019-05-11T13:45:45.408Z,22.17
2019-05-11T13:48:17.730Z,22.17
2019-05-11T13:50:48.145Z,22.16
2019-05-11T13:53:18.622Z,22.17
2019-05-11T13:55:48.969Z,22.15
2019-05-11T13:58:20.081Z,22.15
2019-05-11T14:00:50.457Z,22.16
2019-05-11T14:03:20.749Z,22.15
2019-05-11T14:05:51.242Z,22.15
2019-05-11T14:08:21.767Z,22.15
2019-05-11T14:10:52.195Z,22.13
2019-05-11T14:13:22.582Z,22.14
2019-05-11T14:15:53.061Z,22.13
2019-05-11T14:18:23.411Z,22.14
2019-05-11T14:20:53.758Z,22.13
2019-05-11T14:23:24.229Z,22.13
2019-05-11T14:25:54.608Z,22.13
2019-05-11T14:28:24.984Z,22.13
2019-05-11T14:30:57.714Z,22.12
2019-05-11T14:33:28.232Z,22.13
2019-05-11T14:35:58.817Z,22.13
2019-05-11T14:38:29.114Z,22.13
2019-05-11T14:40:59.390Z,22.12
2019-05-11T14:43:29.729Z,22.12
2019-05-11T14:46:00.322Z,22.12
2019-05-11T14:48:32.047Z,22.11
2019-05-11T14:51:02.405Z,22.10
2019-05-11T14:53:32.740Z,22.12
2019-05-11T14:56:03.030Z,22.12
2019-05-11T14:58:33.390Z,22.12
2019-05-11T15:01:03.804Z,22.11
2019-05-11T15:03:34.298Z,22.12
2019-05-11T15:06:04.712Z,22.11
2019-05-11T15:08:35.130Z,22.10
2019-05-11T15:11:05.318Z,22.10
2019-05-11T15:13:37.999Z,22.10
2019-05-11T15:16:08.205Z,22.09
2019-05-11T15:18:41.878Z,22.09
2019-05-11T15:21:10.671Z,22.10
2019-05-11T15:23:41.264Z,22.09
2019-05-11T15:26:11.480Z,22.08
2019-05-11T15:28:41.792Z,22.08
2019-05-11T15:31:12.080Z,22.09
2019-05-11T15:33:42.346Z,22.09
2019-05-11T15:36:12.700Z,22.08
2019-05-11T15:38:43.089Z,22.08
2019-05-11T15:41:13.420Z,22.08
2019-05-11T15:43:43.732Z,22.09
2019-05-11T15:46:14.132Z,22.09
2019-05-11T15:48:56.781Z,22.09
2019-05-11T15:51:18.517Z,22.09
2019-05-11T15:53:50.262Z,22.08
2019-05-11T15:56:20.987Z,22.08
2019-05-11T15:58:51.416Z,22.08
2019-05-11T16:01:22.420Z,22.08
2019-05-11T16:03:52.925Z,22.09
2019-05-11T16:06:23.387Z,22.10
2019-05-11T16:08:53.708Z,22.10
2019-05-11T16:11:25.447Z,22.10
2019-05-11T16:13:55.741Z,22.10
2019-05-11T16:16:28.006Z,22.10
2019-05-11T16:19:10.534Z,22.09
2019-05-11T16:21:32.641Z,22.09
2019-05-11T16:24:03.061Z,22.10
2019-05-11T16:26:35.548Z,22.09
2019-05-11T16:29:11.069Z,22.10
2019-05-11T16:31:38.129Z,22.09
2019-05-11T16:34:08.557Z,22.08
2019-05-11T16:36:39.159Z,22.07
2019-05-11T16:39:10.420Z,22.08
2019-05-11T16:41:42.305Z,22.07
2019-05-11T16:44:12.685Z,22.07
2019-05-11T16:46:43.148Z,22.07
2019-05-11T16:49:24.854Z,22.07
2019-05-11T16:51:45.508Z,22.05
2019-05-11T16:54:15.924Z,22.05
2019-05-11T16:56:48.526Z,22.04
2019-05-11T16:59:18.375Z,22.05
2019-05-11T17:01:51.027Z,22.05
2019-05-11T17:04:21.497Z,22.06
2019-05-11T17:06:51.814Z,22.06
2019-05-11T17:09:22.227Z,22.08
2019-05-11T17:11:52.561Z,22.07
2019-05-11T17:14:28.050Z,22.06
2019-05-11T17:16:58.606Z,22.06
2019-05-11T17:19:42.944Z,22.07
2019-05-11T17:22:01.747Z,22.07
2019-05-11T17:24:33.149Z,22.07
2019-05-11T17:27:03.605Z,22.06
2019-05-11T17:29:34.148Z,22.07
2019-05-11T17:32:04.601Z,22.10
2019-05-11T17:34:35.030Z,22.09
2019-05-11T17:37:08.862Z,22.10
2019-05-11T17:39:39.018Z,22.09
2019-05-11T17:42:09.929Z,22.09
2019-05-11T17:44:40.327Z,22.08
2019-05-11T17:47:10.660Z,22.08
2019-05-11T17:49:55.982Z,22.08
2019-05-11T17:52:13.140Z,22.08
2019-05-11T17:54:43.554Z,22.08
2019-05-11T17:57:15.431Z,22.09
2019-05-11T17:59:47.641Z,22.07
2019-05-11T18:02:18.249Z,22.05
2019-05-11T18:04:49.408Z,22.05
2019-05-11T18:07:27.171Z,22.06
2019-05-11T18:09:52.837Z,22.10
2019-05-11T18:12:23.317Z,22.11
2019-05-11T18:14:54.713Z,22.11
2019-05-11T18:17:24.892Z,22.10
2019-05-11T18:19:55.298Z,22.08
2019-05-11T18:22:28.335Z,22.06
2019-05-11T18:24:58.175Z,22.06
2019-05-11T18:27:28.705Z,22.06
2019-05-11T18:29:59.273Z,22.07
2019-05-11T18:32:29.705Z,22.08
2019-05-11T18:35:00.110Z,22.09
2019-05-11T18:37:32.468Z,22.08
2019-05-11T18:40:02.991Z,22.08
2019-05-11T18:42:33.588Z,22.08
2019-05-11T18:45:04.042Z,22.07
2019-05-11T18:47:34.640Z,22.04
2019-05-11T18:50:05.397Z,22.04
2019-05-11T18:52:35.822Z,21.99
2019-05-11T18:55:08.362Z,21.95
2019-05-11T18:57:38.579Z,21.93
2019-05-11T19:00:09.550Z,21.91
2019-05-11T19:02:40.018Z,21.93
2019-05-11T19:05:11.265Z,21.94
2019-05-11T19:07:41.638Z,21.96
2019-05-11T19:10:12.141Z,21.96
2019-05-11T19:12:42.503Z,21.97
2019-05-11T19:15:12.911Z,21.98
2019-05-11T19:17:43.369Z,21.98
2019-05-11T19:20:13.943Z,21.97
2019-05-11T19:22:44.439Z,21.92
2019-05-11T19:25:13.094Z,21.89
2019-05-11T19:27:43.772Z,21.88
2019-05-11T19:30:14.152Z,21.85
2019-05-11T19:32:44.577Z,21.83
2019-05-11T19:35:17.584Z,21.83
2019-05-11T19:37:49.646Z,21.82
2019-05-11T19:40:21.250Z,21.81
2019-05-11T19:42:55.096Z,21.80
2019-05-11T19:45:29.606Z,21.80
2019-05-11T19:48:00.218Z,21.82
2019-05-11T19:50:31.538Z,21.82
2019-05-11T19:53:04.716Z,21.79
2019-05-11T19:55:35.293Z,21.80
2019-05-11T19:58:05.587Z,21.80
2019-05-11T20:00:37.877Z,21.83
2019-05-11T20:03:08.973Z,21.84
2019-05-11T20:05:40.750Z,21.83
2019-05-11T20:08:11.302Z,21.83
2019-05-11T20:10:41.560Z,21.87
2019-05-11T20:13:11.955Z,21.90
2019-05-11T20:15:42.461Z,21.92
2019-05-11T20:18:12.674Z,21.94
2019-05-11T20:20:43.081Z,21.95
2019-05-11T20:23:13.365Z,21.96
2019-05-11T20:25:43.949Z,21.97
2019-05-11T20:28:14.339Z,21.97
2019-05-11T20:30:48.284Z,22.00
2019-05-11T20:33:20.261Z,21.99
2019-05-11T20:35:50.783Z,22.00
2019-05-11T20:38:21.250Z,22.00
2019-05-11T20:40:51.827Z,22.01
2019-05-11T20:43:22.145Z,22.02
2019-05-11T20:45:52.424Z,22.03
2019-05-11T20:48:22.848Z,22.02
2019-05-11T20:50:53.170Z,22.01
2019-05-11T20:53:23.632Z,22.02
2019-05-11T20:55:54.024Z,22.04
2019-05-11T20:58:24.445Z,22.05
2019-05-11T21:00:55.012Z,22.05
2019-05-11T21:03:27.570Z,22.05
2019-05-11T21:05:58.639Z,22.04
2019-05-11T21:08:29.262Z,22.00
2019-05-11T21:10:59.522Z,21.97
2019-05-11T21:13:29.804Z,21.96
2019-05-11T21:16:00.085Z,21.95
2019-05-11T21:18:31.348Z,21.95
2019-05-11T21:21:01.801Z,21.93
2019-05-11T21:23:32.168Z,21.93
2019-05-11T21:26:02.709Z,21.93
2019-05-11T21:28:33.072Z,21.92
2019-05-11T21:31:03.499Z,21.92
2019-05-11T21:33:33.981Z,21.93
2019-05-11T21:36:04.199Z,21.92
2019-05-11T21:38:34.582Z,21.90
2019-05-11T21:41:04.826Z,21.89
2019-05-11T21:43:37.294Z,21.90
2019-05-11T21:46:08.213Z,21.91
2019-05-11T21:48:38.678Z,21.90
2019-05-11T21:51:09.210Z,21.91
2019-05-11T21:53:39.589Z,21.90
2019-05-11T21:56:10.043Z,21.91
2019-05-11T21:58:40.501Z,21.91
2019-05-11T22:01:11.132Z,21.88
2019-05-11T22:03:41.584Z,21.91
2019-05-11T22:06:11.777Z,21.91
2019-05-11T22:08:42.137Z,21.92
2019-05-11T22:11:14.272Z,21.90
2019-05-11T22:13:44.950Z,21.91
2019-05-11T22:16:15.343Z,21.91
2019-05-11T22:18:45.945Z,21.90
2019-05-11T22:21:18.627Z,21.89
2019-05-11T22:23:50.662Z,21.88
2019-05-11T22:26:21.057Z,21.89
2019-05-11T22:28:51.434Z,21.92
2019-05-11T22:31:21.914Z,21.89
2019-05-11T22:33:52.128Z,21.89
2019-05-11T22:36:22.537Z,21.91
2019-05-11T22:38:53.002Z,21.88
2019-05-11T22:41:23.356Z,21.87
2019-05-11T22:43:53.768Z,21.87
2019-05-11T22:46:24.198Z,21.88
2019-05-11T22:48:54.575Z,21.88
2019-05-11T22:51:25.050Z,21.87
2019-05-11T22:53:55.263Z,21.88
2019-05-11T22:56:25.545Z,21.86
2019-05-11T22:58:55.957Z,21.87
2019-05-11T23:01:28.189Z,21.87
2019-05-11T23:03:58.595Z,21.88
2019-05-11T23:06:29.034Z,21.87
2019-05-11T23:08:59.609Z,21.86
2019-05-11T23:11:29.985Z,21.86
2019-05-11T23:14:00.499Z,21.86
2019-05-11T23:16:31.945Z,21.85
2019-05-11T23:19:02.387Z,21.85
2019-05-11T23:21:32.712Z,21.88
2019-05-11T23:24:03.138Z,21.86
2019-05-11T23:26:33.561Z,21.86
2019-05-11T23:29:03.928Z,21.89
2019-05-11T23:31:35.277Z,21.86
2019-05-11T23:34:05.487Z,21.86
2019-05-11T23:36:38.130Z,21.88
2019-05-11T23:39:09.123Z,21.90
2019-05-11T23:41:39.656Z,21.89
2019-05-11T23:44:10.060Z,21.89
2019-05-11T23:46:40.363Z,21.88
2019-05-11T23:49:10.756Z,21.90
2019-05-11T23:51:41.186Z,21.87
2019-05-11T23:54:11.664Z,21.85
2019-05-11T23:56:42.036Z,21.85
2019-05-11T23:59:12.500Z,21.87
